sensor_id;sensor_type;location;lat;lon;timestamp;P1;durP1;ratioP1;P2;durP2;ratioP2
65238;SDS011;51827;51.186;6.926;2022-12-20T00:00:32;2.20;;;1.70;;
65238;SDS011;51827;51.186;6.926;2022-12-20T00:01:32;2.70;;;1.70;;
65238;SDS011;51827;51.186;6.926;2022-12-20T00:02:34;2.33;;;1.63;;
65238;SDS011;51827;51.186;6.926;2022-12-20T00:03:34;2.30;;;1.60;;
65238;SDS011;51827;51.186;6.926;2022-12-20T00:04:35;2.42;;;1.60;;
65238;SDS011;51827;51.186;6.926;2022-12-20T00:05:36;3.00;;;1.90;;
65238;SDS011;51827;51.186;6.926;2022-12-20T00:06:37;2.78;;;1.80;;
65238;SDS011;51827;51.186;6.926;2022-12-20T00:07:37;2.60;;;1.80;;
65238;SDS011;51827;51.186;6.926;2022-12-20T00:08:37;2.50;;;1.60;;
65238;SDS011;51827;51.186;6.926;2022-12-20T00:09:38;2.60;;;1.70;;
65238;SDS011;51827;51.186;6.926;2022-12-20T00:10:39;2.63;;;1.90;;
65238;SDS011;51827;51.186;6.926;2022-12-20T00:11:41;2.70;;;1.80;;
65238;SDS011;51827;51.186;6.926;2022-12-20T00:12:41;2.63;;;1.70;;
65238;SDS011;51827;51.186;6.926;2022-12-20T00:13:41;2.73;;;1.80;;
65238;SDS011;51827;51.186;6.926;2022-12-20T00:14:45;2.67;;;1.92;;
65238;SDS011;51827;51.186;6.926;2022-12-20T00:15:45;2.40;;;1.57;;
65238;SDS011;51827;51.186;6.926;2022-12-20T00:16:45;2.47;;;1.63;;
65238;SDS011;51827;51.186;6.926;2022-12-20T00:17:46;2.50;;;1.60;;
65238;SDS011;51827;51.186;6.926;2022-12-20T00:18:46;3.00;;;1.70;;
65238;SDS011;51827;51.186;6.926;2022-12-20T00:19:49;4.82;;;1.67;;
65238;SDS011;51827;51.186;6.926;2022-12-20T00:20:56;3.00;;;1.70;;
65238;SDS011;51827;51.186;6.926;2022-12-20T00:21:57;3.13;;;1.73;;
65238;SDS011;51827;51.186;6.926;2022-12-20T00:22:57;2.63;;;1.80;;
65238;SDS011;51827;51.186;6.926;2022-12-20T00:23:57;2.70;;;1.60;;
65238;SDS011;51827;51.186;6.926;2022-12-20T00:24:58;2.67;;;1.70;;
65238;SDS011;51827;51.186;6.926;2022-12-20T00:27:12;2.65;;;1.65;;
65238;SDS011;51827;51.186;6.926;2022-12-20T00:28:12;3.13;;;1.80;;
65238;SDS011;51827;51.186;6.926;2022-12-20T00:29:12;2.30;;;1.70;;
65238;SDS011;51827;51.186;6.926;2022-12-20T00:30:13;2.70;;;1.80;;
65238;SDS011;51827;51.186;6.926;2022-12-20T00:31:15;2.67;;;1.73;;
65238;SDS011;51827;51.186;6.926;2022-12-20T00:32:16;2.38;;;1.65;;
65238;SDS011;51827;51.186;6.926;2022-12-20T00:33:16;2.60;;;1.50;;
65238;SDS011;51827;51.186;6.926;2022-12-20T00:34:17;2.47;;;1.40;;
65238;SDS011;51827;51.186;6.926;2022-12-20T00:35:17;3.40;;;1.90;;
65238;SDS011;51827;51.186;6.926;2022-12-20T00:36:18;2.70;;;1.87;;
65238;SDS011;51827;51.186;6.926;2022-12-20T00:37:18;2.88;;;1.85;;
65238;SDS011;51827;51.186;6.926;2022-12-20T00:38:19;3.07;;;1.90;;
65238;SDS011;51827;51.186;6.926;2022-12-20T00:39:19;2.77;;;1.80;;
65238;SDS011;51827;51.186;6.926;2022-12-20T00:40:19;2.70;;;1.57;;
65238;SDS011;51827;51.186;6.926;2022-12-20T00:41:21;2.10;;;1.50;;
65238;SDS011;51827;51.186;6.926;2022-12-20T00:42:25;2.40;;;1.70;;
65238;SDS011;51827;51.186;6.926;2022-12-20T00:43:26;1.83;;;1.47;;
65238;SDS011;51827;51.186;6.926;2022-12-20T00:45:27;2.83;;;1.70;;
65238;SDS011;51827;51.186;6.926;2022-12-20T00:46:27;2.83;;;1.60;;
65238;SDS011;51827;51.186;6.926;2022-12-20T00:47:28;2.58;;;1.70;;
65238;SDS011;51827;51.186;6.926;2022-12-20T00:48:29;1.93;;;1.47;;
65238;SDS011;51827;51.186;6.926;2022-12-20T00:49:30;2.40;;;1.70;;
65238;SDS011;51827;51.186;6.926;2022-12-20T00:50:30;2.60;;;1.77;;
65238;SDS011;51827;51.186;6.926;2022-12-20T00:51:30;2.13;;;1.60;;
65238;SDS011;51827;51.186;6.926;2022-12-20T00:52:31;2.50;;;1.70;;
65238;SDS011;51827;51.186;6.926;2022-12-20T00:53:31;2.50;;;1.50;;
65238;SDS011;51827;51.186;6.926;2022-12-20T00:54:32;2.17;;;1.65;;
65238;SDS011;51827;51.186;6.926;2022-12-20T00:55:32;2.77;;;1.57;;
65238;SDS011;51827;51.186;6.926;2022-12-20T00:56:33;3.80;;;1.70;;
65238;SDS011;51827;51.186;6.926;2022-12-20T00:57:33;2.33;;;1.63;;
65238;SDS011;51827;51.186;6.926;2022-12-20T00:58:34;2.20;;;1.60;;
65238;SDS011;51827;51.186;6.926;2022-12-20T00:59:36;2.70;;;1.70;;
65238;SDS011;51827;51.186;6.926;2022-12-20T01:00:37;3.20;;;1.63;;
65238;SDS011;51827;51.186;6.926;2022-12-20T01:02:38;3.03;;;1.70;;
65238;SDS011;51827;51.186;6.926;2022-12-20T01:03:38;2.57;;;1.50;;
65238;SDS011;51827;51.186;6.926;2022-12-20T01:04:38;2.00;;;1.57;;
65238;SDS011;51827;51.186;6.926;2022-12-20T01:05:39;2.70;;;1.60;;
65238;SDS011;51827;51.186;6.926;2022-12-20T01:06:39;2.53;;;1.60;;
65238;SDS011;51827;51.186;6.926;2022-12-20T01:07:39;2.23;;;1.43;;
65238;SDS011;51827;51.186;6.926;2022-12-20T01:08:39;2.60;;;1.60;;
65238;SDS011;51827;51.186;6.926;2022-12-20T01:09:40;2.90;;;1.80;;
65238;SDS011;51827;51.186;6.926;2022-12-20T01:10:40;1.97;;;1.50;;
65238;SDS011;51827;51.186;6.926;2022-12-20T01:11:40;1.93;;;1.40;;
65238;SDS011;51827;51.186;6.926;2022-12-20T01:12:40;2.70;;;1.50;;
65238;SDS011;51827;51.186;6.926;2022-12-20T01:13:42;2.13;;;1.40;;
65238;SDS011;51827;51.186;6.926;2022-12-20T01:14:44;2.05;;;1.50;;
65238;SDS011;51827;51.186;6.926;2022-12-20T01:15:44;4.00;;;1.60;;
65238;SDS011;51827;51.186;6.926;2022-12-20T01:16:45;2.13;;;1.60;;
65238;SDS011;51827;51.186;6.926;2022-12-20T01:17:46;2.10;;;1.40;;
65238;SDS011;51827;51.186;6.926;2022-12-20T01:18:47;2.67;;;1.67;;
65238;SDS011;51827;51.186;6.926;2022-12-20T01:19:48;1.80;;;1.38;;
65238;SDS011;51827;51.186;6.926;2022-12-20T01:20:48;2.63;;;1.40;;
65238;SDS011;51827;51.186;6.926;2022-12-20T01:21:48;1.93;;;1.40;;
65238;SDS011;51827;51.186;6.926;2022-12-20T01:22:49;2.20;;;1.50;;
65238;SDS011;51827;51.186;6.926;2022-12-20T01:23:49;2.30;;;1.40;;
65238;SDS011;51827;51.186;6.926;2022-12-20T01:24:49;2.35;;;1.45;;
65238;SDS011;51827;51.186;6.926;2022-12-20T01:25:50;2.10;;;1.43;;
65238;SDS011;51827;51.186;6.926;2022-12-20T01:26:50;2.70;;;1.60;;
65238;SDS011;51827;51.186;6.926;2022-12-20T01:27:50;2.47;;;1.57;;
65238;SDS011;51827;51.186;6.926;2022-12-20T01:28:51;2.63;;;1.60;;
65238;SDS011;51827;51.186;6.926;2022-12-20T01:29:53;3.50;;;1.38;;
65238;SDS011;51827;51.186;6.926;2022-12-20T01:30:54;1.75;;;1.27;;
65238;SDS011;51827;51.186;6.926;2022-12-20T01:31:54;1.90;;;1.50;;
65238;SDS011;51827;51.186;6.926;2022-12-20T01:32:54;2.20;;;1.53;;
65238;SDS011;51827;51.186;6.926;2022-12-20T01:33:54;1.97;;;1.40;;
65238;SDS011;51827;51.186;6.926;2022-12-20T01:34:55;2.00;;;1.30;;
65238;SDS011;51827;51.186;6.926;2022-12-20T01:35:59;2.03;;;1.53;;
65238;SDS011;51827;51.186;6.926;2022-12-20T01:37:04;2.05;;;1.50;;
65238;SDS011;51827;51.186;6.926;2022-12-20T01:38:04;2.70;;;1.50;;
65238;SDS011;51827;51.186;6.926;2022-12-20T01:39:12;2.20;;;1.47;;
65238;SDS011;51827;51.186;6.926;2022-12-20T01:40:14;2.40;;;1.38;;
65238;SDS011;51827;51.186;6.926;2022-12-20T01:41:18;2.05;;;1.38;;
65238;SDS011;51827;51.186;6.926;2022-12-20T01:42:20;2.95;;;1.55;;
65238;SDS011;51827;51.186;6.926;2022-12-20T01:43:21;2.43;;;1.60;;
65238;SDS011;51827;51.186;6.926;2022-12-20T01:45:27;2.23;;;1.40;;
65238;SDS011;51827;51.186;6.926;2022-12-20T01:46:30;3.05;;;1.58;;
65238;SDS011;51827;51.186;6.926;2022-12-20T01:47:32;2.05;;;1.48;;
65238;SDS011;51827;51.186;6.926;2022-12-20T01:48:36;2.10;;;1.45;;
65238;SDS011;51827;51.186;6.926;2022-12-20T01:49:43;1.97;;;1.50;;
65238;SDS011;51827;51.186;6.926;2022-12-20T01:50:47;2.38;;;1.50;;
65238;SDS011;51827;51.186;6.926;2022-12-20T01:51:54;2.05;;;1.42;;
65238;SDS011;51827;51.186;6.926;2022-12-20T01:53:03;2.88;;;1.35;;
65238;SDS011;51827;51.186;6.926;2022-12-20T01:54:06;1.70;;;1.30;;
65238;SDS011;51827;51.186;6.926;2022-12-20T01:55:14;1.80;;;1.30;;
65238;SDS011;51827;51.186;6.926;2022-12-20T01:56:18;2.35;;;1.50;;
65238;SDS011;51827;51.186;6.926;2022-12-20T01:58:02;1.90;;;1.40;;
65238;SDS011;51827;51.186;6.926;2022-12-20T01:58:51;2.10;;;1.45;;
65238;SDS011;51827;51.186;6.926;2022-12-20T01:59:53;1.80;;;1.40;;
65238;SDS011;51827;51.186;6.926;2022-12-20T02:00:55;1.60;;;1.20;;
65238;SDS011;51827;51.186;6.926;2022-12-20T02:01:57;2.23;;;1.60;;
65238;SDS011;51827;51.186;6.926;2022-12-20T02:02:59;2.75;;;1.50;;
65238;SDS011;51827;51.186;6.926;2022-12-20T02:04:03;2.30;;;1.50;;
65238;SDS011;51827;51.186;6.926;2022-12-20T02:05:03;2.03;;;1.30;;
65238;SDS011;51827;51.186;6.926;2022-12-20T02:06:21;2.17;;;1.50;;
65238;SDS011;51827;51.186;6.926;2022-12-20T02:07:24;2.28;;;1.38;;
65238;SDS011;51827;51.186;6.926;2022-12-20T02:08:27;2.47;;;1.50;;
65238;SDS011;51827;51.186;6.926;2022-12-20T02:09:27;1.70;;;1.30;;
65238;SDS011;51827;51.186;6.926;2022-12-20T02:10:34;2.20;;;1.50;;
65238;SDS011;51827;51.186;6.926;2022-12-20T02:12:57;2.67;;;1.50;;
65238;SDS011;51827;51.186;6.926;2022-12-20T02:14:13;2.00;;;1.40;;
65238;SDS011;51827;51.186;6.926;2022-12-20T02:16:38;2.15;;;1.60;;
65238;SDS011;51827;51.186;6.926;2022-12-20T02:19:46;1.88;;;1.40;;
65238;SDS011;51827;51.186;6.926;2022-12-20T02:22:38;2.97;;;1.50;;
65238;SDS011;51827;51.186;6.926;2022-12-20T02:25:41;1.52;;;1.10;;
65238;SDS011;51827;51.186;6.926;2022-12-20T02:30:33;2.63;;;1.48;;
65238;SDS011;51827;51.186;6.926;2022-12-20T02:31:38;2.10;;;1.40;;
65238;SDS011;51827;51.186;6.926;2022-12-20T02:33:55;3.85;;;1.40;;
65238;SDS011;51827;51.186;6.926;2022-12-20T02:35:56;1.73;;;1.30;;
65238;SDS011;51827;51.186;6.926;2022-12-20T02:36:57;1.83;;;1.40;;
65238;SDS011;51827;51.186;6.926;2022-12-20T02:37:58;1.70;;;1.30;;
65238;SDS011;51827;51.186;6.926;2022-12-20T02:39:00;1.77;;;1.23;;
65238;SDS011;51827;51.186;6.926;2022-12-20T02:40:01;1.87;;;1.20;;
65238;SDS011;51827;51.186;6.926;2022-12-20T02:41:08;2.08;;;1.30;;
65238;SDS011;51827;51.186;6.926;2022-12-20T02:42:11;2.05;;;1.25;;
65238;SDS011;51827;51.186;6.926;2022-12-20T02:43:13;1.90;;;1.30;;
65238;SDS011;51827;51.186;6.926;2022-12-20T02:44:14;1.85;;;1.27;;
65238;SDS011;51827;51.186;6.926;2022-12-20T02:45:18;1.65;;;1.35;;
65238;SDS011;51827;51.186;6.926;2022-12-20T02:46:21;1.80;;;1.30;;
65238;SDS011;51827;51.186;6.926;2022-12-20T02:47:24;1.90;;;1.30;;
65238;SDS011;51827;51.186;6.926;2022-12-20T02:48:33;3.95;;;1.50;;
65238;SDS011;51827;51.186;6.926;2022-12-20T02:49:36;2.75;;;1.60;;
65238;SDS011;51827;51.186;6.926;2022-12-20T02:50:40;2.05;;;1.40;;
65238;SDS011;51827;51.186;6.926;2022-12-20T02:51:53;2.22;;;1.45;;
65238;SDS011;51827;51.186;6.926;2022-12-20T02:52:54;1.80;;;1.20;;
65238;SDS011;51827;51.186;6.926;2022-12-20T02:53:54;2.30;;;1.40;;
65238;SDS011;51827;51.186;6.926;2022-12-20T02:54:56;2.30;;;1.30;;
65238;SDS011;51827;51.186;6.926;2022-12-20T02:56:00;1.83;;;1.33;;
65238;SDS011;51827;51.186;6.926;2022-12-20T02:59:41;2.28;;;1.40;;
65238;SDS011;51827;51.186;6.926;2022-12-20T03:00:50;1.40;;;1.08;;
65238;SDS011;51827;51.186;6.926;2022-12-20T03:01:52;2.03;;;1.40;;
65238;SDS011;51827;51.186;6.926;2022-12-20T03:02:54;1.83;;;1.20;;
65238;SDS011;51827;51.186;6.926;2022-12-20T03:03:54;1.43;;;1.13;;
65238;SDS011;51827;51.186;6.926;2022-12-20T03:04:56;2.40;;;1.48;;
65238;SDS011;51827;51.186;6.926;2022-12-20T03:05:58;2.90;;;1.40;;
65238;SDS011;51827;51.186;6.926;2022-12-20T03:07:00;1.80;;;1.20;;
65238;SDS011;51827;51.186;6.926;2022-12-20T03:08:03;2.33;;;1.50;;
65238;SDS011;51827;51.186;6.926;2022-12-20T03:09:03;2.20;;;1.40;;
65238;SDS011;51827;51.186;6.926;2022-12-20T03:10:04;1.97;;;1.40;;
65238;SDS011;51827;51.186;6.926;2022-12-20T03:11:04;1.77;;;1.23;;
65238;SDS011;51827;51.186;6.926;2022-12-20T03:12:05;1.70;;;1.40;;
65238;SDS011;51827;51.186;6.926;2022-12-20T03:14:06;2.28;;;1.30;;
65238;SDS011;51827;51.186;6.926;2022-12-20T03:15:06;1.67;;;1.23;;
65238;SDS011;51827;51.186;6.926;2022-12-20T03:16:07;2.03;;;1.30;;
65238;SDS011;51827;51.186;6.926;2022-12-20T03:17:08;1.70;;;1.20;;
65238;SDS011;51827;51.186;6.926;2022-12-20T03:18:09;1.70;;;1.40;;
65238;SDS011;51827;51.186;6.926;2022-12-20T03:19:09;4.30;;;1.40;;
65238;SDS011;51827;51.186;6.926;2022-12-20T03:20:10;1.90;;;1.40;;
65238;SDS011;51827;51.186;6.926;2022-12-20T03:21:10;2.45;;;1.40;;
65238;SDS011;51827;51.186;6.926;2022-12-20T03:22:11;2.28;;;1.25;;
65238;SDS011;51827;51.186;6.926;2022-12-20T03:23:11;2.08;;;1.10;;
65238;SDS011;51827;51.186;6.926;2022-12-20T03:24:12;1.83;;;1.27;;
65238;SDS011;51827;51.186;6.926;2022-12-20T03:25:12;2.08;;;1.30;;
65238;SDS011;51827;51.186;6.926;2022-12-20T03:26:13;2.17;;;1.67;;
65238;SDS011;51827;51.186;6.926;2022-12-20T03:27:13;2.50;;;1.40;;
65238;SDS011;51827;51.186;6.926;2022-12-20T03:28:13;1.67;;;1.30;;
65238;SDS011;51827;51.186;6.926;2022-12-20T03:29:14;1.80;;;1.30;;
65238;SDS011;51827;51.186;6.926;2022-12-20T03:30:14;2.03;;;1.30;;
65238;SDS011;51827;51.186;6.926;2022-12-20T03:31:14;2.07;;;1.47;;
65238;SDS011;51827;51.186;6.926;2022-12-20T03:32:14;2.17;;;1.47;;
65238;SDS011;51827;51.186;6.926;2022-12-20T03:33:15;1.73;;;1.10;;
65238;SDS011;51827;51.186;6.926;2022-12-20T03:34:15;2.15;;;1.40;;
65238;SDS011;51827;51.186;6.926;2022-12-20T03:35:15;1.77;;;1.33;;
65238;SDS011;51827;51.186;6.926;2022-12-20T03:36:16;2.10;;;1.40;;
65238;SDS011;51827;51.186;6.926;2022-12-20T03:37:16;1.77;;;1.27;;
65238;SDS011;51827;51.186;6.926;2022-12-20T03:38:16;1.83;;;1.40;;
65238;SDS011;51827;51.186;6.926;2022-12-20T03:39:16;1.50;;;1.10;;
65238;SDS011;51827;51.186;6.926;2022-12-20T03:40:17;2.30;;;1.50;;
65238;SDS011;51827;51.186;6.926;2022-12-20T03:41:17;1.90;;;1.30;;
65238;SDS011;51827;51.186;6.926;2022-12-20T03:42:18;1.70;;;1.23;;
65238;SDS011;51827;51.186;6.926;2022-12-20T03:43:18;1.83;;;1.13;;
65238;SDS011;51827;51.186;6.926;2022-12-20T03:44:19;2.40;;;1.40;;
65238;SDS011;51827;51.186;6.926;2022-12-20T03:45:19;2.37;;;1.40;;
65238;SDS011;51827;51.186;6.926;2022-12-20T03:46:19;2.07;;;1.40;;
65238;SDS011;51827;51.186;6.926;2022-12-20T03:47:19;1.70;;;1.30;;
65238;SDS011;51827;51.186;6.926;2022-12-20T03:48:20;1.53;;;1.17;;
65238;SDS011;51827;51.186;6.926;2022-12-20T03:49:20;2.17;;;1.40;;
65238;SDS011;51827;51.186;6.926;2022-12-20T03:50:20;2.57;;;1.30;;
65238;SDS011;51827;51.186;6.926;2022-12-20T03:51:21;1.73;;;1.30;;
65238;SDS011;51827;51.186;6.926;2022-12-20T03:52:21;1.97;;;1.40;;
65238;SDS011;51827;51.186;6.926;2022-12-20T03:53:21;1.93;;;1.30;;
65238;SDS011;51827;51.186;6.926;2022-12-20T03:54:21;1.70;;;1.23;;
65238;SDS011;51827;51.186;6.926;2022-12-20T03:55:22;2.10;;;1.50;;
65238;SDS011;51827;51.186;6.926;2022-12-20T03:56:22;1.97;;;1.30;;
65238;SDS011;51827;51.186;6.926;2022-12-20T03:57:22;1.77;;;1.30;;
65238;SDS011;51827;51.186;6.926;2022-12-20T03:58:23;1.90;;;1.33;;
65238;SDS011;51827;51.186;6.926;2022-12-20T03:59:23;1.80;;;1.27;;
65238;SDS011;51827;51.186;6.926;2022-12-20T04:00:23;1.87;;;1.30;;
65238;SDS011;51827;51.186;6.926;2022-12-20T04:01:25;1.52;;;1.20;;
65238;SDS011;51827;51.186;6.926;2022-12-20T04:02:27;1.70;;;1.30;;
65238;SDS011;51827;51.186;6.926;2022-12-20T04:03:28;2.27;;;1.30;;
65238;SDS011;51827;51.186;6.926;2022-12-20T04:04:28;1.97;;;1.23;;
65238;SDS011;51827;51.186;6.926;2022-12-20T04:05:28;2.03;;;1.40;;
65238;SDS011;51827;51.186;6.926;2022-12-20T04:06:29;2.27;;;1.23;;
65238;SDS011;51827;51.186;6.926;2022-12-20T04:07:29;1.60;;;1.20;;
65238;SDS011;51827;51.186;6.926;2022-12-20T04:08:29;1.90;;;1.23;;
65238;SDS011;51827;51.186;6.926;2022-12-20T04:09:29;1.93;;;1.27;;
65238;SDS011;51827;51.186;6.926;2022-12-20T04:10:30;1.83;;;1.27;;
65238;SDS011;51827;51.186;6.926;2022-12-20T04:11:30;1.77;;;1.33;;
65238;SDS011;51827;51.186;6.926;2022-12-20T04:12:30;1.47;;;1.20;;
65238;SDS011;51827;51.186;6.926;2022-12-20T04:13:30;2.27;;;1.27;;
65238;SDS011;51827;51.186;6.926;2022-12-20T04:14:31;2.67;;;1.40;;
65238;SDS011;51827;51.186;6.926;2022-12-20T04:15:31;1.93;;;1.20;;
65238;SDS011;51827;51.186;6.926;2022-12-20T04:16:31;1.67;;;1.30;;
65238;SDS011;51827;51.186;6.926;2022-12-20T04:17:32;1.88;;;1.23;;
65238;SDS011;51827;51.186;6.926;2022-12-20T04:18:32;1.67;;;1.20;;
65238;SDS011;51827;51.186;6.926;2022-12-20T04:19:33;2.20;;;1.30;;
65238;SDS011;51827;51.186;6.926;2022-12-20T04:20:33;1.77;;;1.20;;
65238;SDS011;51827;51.186;6.926;2022-12-20T04:21:33;2.00;;;1.40;;
65238;SDS011;51827;51.186;6.926;2022-12-20T04:23:35;2.10;;;1.27;;
65238;SDS011;51827;51.186;6.926;2022-12-20T04:24:36;2.30;;;1.50;;
65238;SDS011;51827;51.186;6.926;2022-12-20T04:25:36;1.87;;;1.30;;
65238;SDS011;51827;51.186;6.926;2022-12-20T04:26:37;1.50;;;1.20;;
65238;SDS011;51827;51.186;6.926;2022-12-20T04:27:37;2.27;;;1.40;;
65238;SDS011;51827;51.186;6.926;2022-12-20T04:28:37;2.57;;;1.33;;
65238;SDS011;51827;51.186;6.926;2022-12-20T04:29:38;1.88;;;1.30;;
65238;SDS011;51827;51.186;6.926;2022-12-20T04:30:38;1.90;;;1.30;;
65238;SDS011;51827;51.186;6.926;2022-12-20T04:31:38;1.97;;;1.13;;
65238;SDS011;51827;51.186;6.926;2022-12-20T04:32:38;1.70;;;1.20;;
65238;SDS011;51827;51.186;6.926;2022-12-20T04:33:39;2.50;;;1.50;;
65238;SDS011;51827;51.186;6.926;2022-12-20T04:34:39;2.37;;;1.30;;
65238;SDS011;51827;51.186;6.926;2022-12-20T04:35:39;2.00;;;1.30;;
65238;SDS011;51827;51.186;6.926;2022-12-20T04:36:39;1.80;;;1.20;;
65238;SDS011;51827;51.186;6.926;2022-12-20T04:37:40;1.47;;;1.20;;
65238;SDS011;51827;51.186;6.926;2022-12-20T04:38:40;2.20;;;1.40;;
65238;SDS011;51827;51.186;6.926;2022-12-20T04:39:40;1.90;;;1.30;;
65238;SDS011;51827;51.186;6.926;2022-12-20T04:40:40;1.70;;;1.30;;
65238;SDS011;51827;51.186;6.926;2022-12-20T04:41:41;1.73;;;1.20;;
65238;SDS011;51827;51.186;6.926;2022-12-20T04:42:41;1.83;;;1.20;;
65238;SDS011;51827;51.186;6.926;2022-12-20T04:43:41;1.80;;;1.20;;
65238;SDS011;51827;51.186;6.926;2022-12-20T04:44:41;2.27;;;1.50;;
65238;SDS011;51827;51.186;6.926;2022-12-20T04:45:42;2.53;;;1.40;;
65238;SDS011;51827;51.186;6.926;2022-12-20T04:46:42;4.65;;;1.20;;
65238;SDS011;51827;51.186;6.926;2022-12-20T04:47:42;2.13;;;1.33;;
65238;SDS011;51827;51.186;6.926;2022-12-20T04:48:43;2.20;;;1.30;;
65238;SDS011;51827;51.186;6.926;2022-12-20T04:49:43;2.40;;;1.40;;
65238;SDS011;51827;51.186;6.926;2022-12-20T04:50:46;2.30;;;1.30;;
65238;SDS011;51827;51.186;6.926;2022-12-20T04:51:47;1.75;;;1.20;;
65238;SDS011;51827;51.186;6.926;2022-12-20T04:52:48;3.87;;;1.40;;
65238;SDS011;51827;51.186;6.926;2022-12-20T04:53:48;1.47;;;1.00;;
65238;SDS011;51827;51.186;6.926;2022-12-20T04:54:48;2.83;;;1.10;;
65238;SDS011;51827;51.186;6.926;2022-12-20T04:55:49;4.27;;;1.50;;
65238;SDS011;51827;51.186;6.926;2022-12-20T04:56:49;2.03;;;1.35;;
65238;SDS011;51827;51.186;6.926;2022-12-20T04:57:49;2.53;;;1.30;;
65238;SDS011;51827;51.186;6.926;2022-12-20T04:58:50;5.23;;;1.40;;
65238;SDS011;51827;51.186;6.926;2022-12-20T04:59:52;4.70;;;1.20;;
65238;SDS011;51827;51.186;6.926;2022-12-20T05:00:53;2.40;;;1.13;;
65238;SDS011;51827;51.186;6.926;2022-12-20T05:01:53;1.70;;;1.23;;
65238;SDS011;51827;51.186;6.926;2022-12-20T05:02:53;1.80;;;1.30;;
65238;SDS011;51827;51.186;6.926;2022-12-20T05:03:53;2.20;;;1.40;;
65238;SDS011;51827;51.186;6.926;2022-12-20T05:04:54;2.78;;;1.33;;
65238;SDS011;51827;51.186;6.926;2022-12-20T05:05:54;2.03;;;1.40;;
65238;SDS011;51827;51.186;6.926;2022-12-20T05:06:55;2.10;;;1.37;;
65238;SDS011;51827;51.186;6.926;2022-12-20T05:07:55;4.17;;;1.30;;
65238;SDS011;51827;51.186;6.926;2022-12-20T05:08:56;1.52;;;1.13;;
65238;SDS011;51827;51.186;6.926;2022-12-20T05:09:56;2.13;;;1.37;;
65238;SDS011;51827;51.186;6.926;2022-12-20T05:10:56;4.73;;;1.40;;
65238;SDS011;51827;51.186;6.926;2022-12-20T05:11:56;2.80;;;1.30;;
65238;SDS011;51827;51.186;6.926;2022-12-20T05:12:56;2.83;;;1.30;;
65238;SDS011;51827;51.186;6.926;2022-12-20T05:13:57;2.08;;;1.30;;
65238;SDS011;51827;51.186;6.926;2022-12-20T05:14:58;2.33;;;1.30;;
65238;SDS011;51827;51.186;6.926;2022-12-20T05:15:58;2.70;;;1.27;;
65238;SDS011;51827;51.186;6.926;2022-12-20T05:16:59;1.67;;;1.40;;
65238;SDS011;51827;51.186;6.926;2022-12-20T05:18:00;1.63;;;1.30;;
65238;SDS011;51827;51.186;6.926;2022-12-20T05:19:00;3.93;;;1.30;;
65238;SDS011;51827;51.186;6.926;2022-12-20T05:20:00;2.00;;;1.37;;
65238;SDS011;51827;51.186;6.926;2022-12-20T05:21:02;2.73;;;1.27;;
65238;SDS011;51827;51.186;6.926;2022-12-20T05:22:03;2.25;;;1.33;;
65238;SDS011;51827;51.186;6.926;2022-12-20T05:23:04;3.13;;;1.27;;
65238;SDS011;51827;51.186;6.926;2022-12-20T05:24:04;3.90;;;1.43;;
65238;SDS011;51827;51.186;6.926;2022-12-20T05:25:05;2.05;;;1.30;;
65238;SDS011;51827;51.186;6.926;2022-12-20T05:26:07;2.05;;;1.38;;
65238;SDS011;51827;51.186;6.926;2022-12-20T05:27:08;2.65;;;1.40;;
65238;SDS011;51827;51.186;6.926;2022-12-20T05:28:08;2.40;;;1.27;;
65238;SDS011;51827;51.186;6.926;2022-12-20T05:29:08;4.73;;;1.20;;
65238;SDS011;51827;51.186;6.926;2022-12-20T05:30:08;1.80;;;1.20;;
65238;SDS011;51827;51.186;6.926;2022-12-20T05:31:09;2.30;;;1.55;;
65238;SDS011;51827;51.186;6.926;2022-12-20T05:32:09;2.50;;;1.50;;
65238;SDS011;51827;51.186;6.926;2022-12-20T05:33:10;1.93;;;1.30;;
65238;SDS011;51827;51.186;6.926;2022-12-20T05:34:10;1.77;;;1.27;;
65238;SDS011;51827;51.186;6.926;2022-12-20T05:35:10;1.97;;;1.10;;
65238;SDS011;51827;51.186;6.926;2022-12-20T05:36:11;2.90;;;1.30;;
65238;SDS011;51827;51.186;6.926;2022-12-20T05:37:11;2.00;;;1.20;;
65238;SDS011;51827;51.186;6.926;2022-12-20T05:38:11;2.20;;;1.30;;
65238;SDS011;51827;51.186;6.926;2022-12-20T05:39:12;3.87;;;1.50;;
65238;SDS011;51827;51.186;6.926;2022-12-20T05:40:12;2.03;;;1.30;;
65238;SDS011;51827;51.186;6.926;2022-12-20T05:41:12;1.93;;;1.33;;
65238;SDS011;51827;51.186;6.926;2022-12-20T05:42:13;1.40;;;1.17;;
65238;SDS011;51827;51.186;6.926;2022-12-20T05:43:13;1.90;;;1.40;;
65238;SDS011;51827;51.186;6.926;2022-12-20T05:44:14;3.15;;;1.27;;
65238;SDS011;51827;51.186;6.926;2022-12-20T05:45:14;4.97;;;1.40;;
65238;SDS011;51827;51.186;6.926;2022-12-20T05:46:14;1.87;;;1.20;;
65238;SDS011;51827;51.186;6.926;2022-12-20T05:47:15;1.97;;;1.23;;
65238;SDS011;51827;51.186;6.926;2022-12-20T05:48:15;2.50;;;1.20;;
65238;SDS011;51827;51.186;6.926;2022-12-20T05:50:16;2.77;;;1.30;;
65238;SDS011;51827;51.186;6.926;2022-12-20T05:51:17;2.70;;;1.40;;
65238;SDS011;51827;51.186;6.926;2022-12-20T05:52:17;2.07;;;1.37;;
65238;SDS011;51827;51.186;6.926;2022-12-20T05:53:17;2.00;;;1.40;;
65238;SDS011;51827;51.186;6.926;2022-12-20T05:54:17;1.80;;;1.30;;
65238;SDS011;51827;51.186;6.926;2022-12-20T05:55:18;1.97;;;1.47;;
65238;SDS011;51827;51.186;6.926;2022-12-20T05:56:18;1.30;;;1.20;;
65238;SDS011;51827;51.186;6.926;2022-12-20T05:57:18;1.40;;;1.20;;
65238;SDS011;51827;51.186;6.926;2022-12-20T05:58:19;2.60;;;1.30;;
65238;SDS011;51827;51.186;6.926;2022-12-20T05:59:19;2.00;;;1.30;;
65238;SDS011;51827;51.186;6.926;2022-12-20T06:00:19;2.63;;;1.40;;
65238;SDS011;51827;51.186;6.926;2022-12-20T06:01:20;1.30;;;1.10;;
65238;SDS011;51827;51.186;6.926;2022-12-20T06:02:20;1.97;;;1.30;;
65238;SDS011;51827;51.186;6.926;2022-12-20T06:03:20;2.07;;;1.37;;
65238;SDS011;51827;51.186;6.926;2022-12-20T06:04:21;2.15;;;1.33;;
65238;SDS011;51827;51.186;6.926;2022-12-20T06:05:21;3.03;;;1.30;;
65238;SDS011;51827;51.186;6.926;2022-12-20T06:06:21;1.87;;;1.20;;
65238;SDS011;51827;51.186;6.926;2022-12-20T06:07:21;2.47;;;1.27;;
65238;SDS011;51827;51.186;6.926;2022-12-20T06:08:22;2.63;;;1.30;;
65238;SDS011;51827;51.186;6.926;2022-12-20T06:09:22;2.72;;;1.35;;
65238;SDS011;51827;51.186;6.926;2022-12-20T06:10:23;1.73;;;1.20;;
65238;SDS011;51827;51.186;6.926;2022-12-20T06:11:23;3.67;;;1.40;;
65238;SDS011;51827;51.186;6.926;2022-12-20T06:12:23;1.40;;;1.07;;
65238;SDS011;51827;51.186;6.926;2022-12-20T06:13:23;1.90;;;1.23;;
65238;SDS011;51827;51.186;6.926;2022-12-20T06:14:24;3.83;;;1.47;;
65238;SDS011;51827;51.186;6.926;2022-12-20T06:15:24;4.67;;;1.40;;
65238;SDS011;51827;51.186;6.926;2022-12-20T06:16:24;1.20;;;1.03;;
65238;SDS011;51827;51.186;6.926;2022-12-20T06:17:24;2.10;;;1.17;;
65238;SDS011;51827;51.186;6.926;2022-12-20T06:18:25;2.55;;;1.20;;
65238;SDS011;51827;51.186;6.926;2022-12-20T06:19:26;2.70;;;1.33;;
65238;SDS011;51827;51.186;6.926;2022-12-20T06:20:26;2.90;;;1.40;;
65238;SDS011;51827;51.186;6.926;2022-12-20T06:21:26;3.57;;;1.13;;
65238;SDS011;51827;51.186;6.926;2022-12-20T06:22:27;4.20;;;1.50;;
65238;SDS011;51827;51.186;6.926;2022-12-20T06:23:27;2.17;;;1.40;;
65238;SDS011;51827;51.186;6.926;2022-12-20T06:24:27;1.90;;;1.40;;
65238;SDS011;51827;51.186;6.926;2022-12-20T06:25:28;4.03;;;1.27;;
65238;SDS011;51827;51.186;6.926;2022-12-20T06:26:29;2.90;;;1.27;;
65238;SDS011;51827;51.186;6.926;2022-12-20T06:27:29;1.87;;;1.20;;
65238;SDS011;51827;51.186;6.926;2022-12-20T06:28:29;2.27;;;1.37;;
65238;SDS011;51827;51.186;6.926;2022-12-20T06:29:29;1.40;;;1.20;;
65238;SDS011;51827;51.186;6.926;2022-12-20T06:30:30;1.47;;;1.00;;
65238;SDS011;51827;51.186;6.926;2022-12-20T06:31:30;1.90;;;1.20;;
65238;SDS011;51827;51.186;6.926;2022-12-20T06:32:30;2.10;;;1.23;;
65238;SDS011;51827;51.186;6.926;2022-12-20T06:33:30;2.30;;;1.47;;